Página principal
METAR-TAF:

METAR-TAF

Aeroportos :

Yakutsk, Rússia

latitude: 62-01N, longitude: 129-43E, altura: 103 m

Observação actual do tempo

O boletim foi feito há 44 minutos, às 06:30 UTC
Vento 2 kt de noroeste
Temperatura 8°C
Humidade 46%
Pressão 1000 hPa
Visibilidade 10 km ou mais
Nuvens dispersasa uma altura de 5000 ft, Cumulonimbus.

METAR: UEEE 270630Z 31001MPS 9999 SCT050CB 08/M03 Q1000 R23L/09//60 NOSIG RMK QFE741

Hora: 16:14 (07:14 UTC)

Previsão

O boletim foi feito há 2 horas e 14 minutos, às 05:00 UTC
Previsão válida de 27 às 06 UTC a 28 às 12 UTC
Vento 6 kt de sudoeste
Visibilidade 10 km ou mais
Nuvens dispersasa uma altura de 2500 ft, Cumulonimbus.
Encobertoa uma altura de 7000 ft
Temporariamente
de 27 às 06 UTC a 27 às 15 UTC
aguaceiros fracos de chuva

TAF: UEEE 270500Z 2706/2812 22003MPS 9999 SCT025CB OVC070 TEMPO 2706/2715 -SHRA

Observações e previsões do tempo de mais de 4000 aeroportos (mensagens METAR e TAF).

As estações disponíveis são os pontos amarelos e vermelhos sobre o mapa.

Mova o rato sobre o mapa para ver o nome da estação.

Depois clique no ponto para visualizar as observações e previsões meteorológicas.

Para alterar o mapa : clique nos botões verdes com uma cruz preta para aumentar o zoom; no botão verde com uma pitada de zoom; ou nas setas verdes para mapas adjacentes.


METAR-TAF: